Terminal Aerodrome Forecast
Issued by NWS Aberdeen, SD

Home | Current Version | Previous Version | Text Only | Print | Product List | Glossary On
Versions: 1 2 3 4 5 6 7 8 9 10 11 12 13 14 15 16 17 18 19 20 21 22 23 24 25 26 27 28 29 30 31 32 33 34 35 36
000
FTAK31 PAFA 292356
TAFABR
TAF
PABR 292356Z 3000/3024 08020G28KT P6SM FEW100 BKN180
     FM300100 07018KT P6SM BKN008
     FM300600 07016KT 5SM -RASN BR OVC008 PROB30 3009/3015 3SM -FZRA
      BR OVC006=

USA.gov is the U.S. government's official web portal to all federal, state and local government web resources and services.